Time;durP1;ratioP1;P1;durP2;ratioP2;P2;SDS_P1;SDS_P2;PMS_P1;PMS_P2;Temp;Humidity;BMP_temperature;BMP_pressure;BME280_temperature;BME280_humidity;BME280_pressure;Samples;Min_cycle;Max_cycle;Signal;HPM_P1;HPM_P2
2021/03/07 00:00:41;;;;;;;5.20;4.22;;;6.30;33.90;;;;;;5092902;28;20214;-52
2021/03/07 00:03:08;;;;;;;5.57;5.03;;;6.30;33.90;;;;;;5093133;28;20678;-51
2021/03/07 00:05:35;;;;;;;8.82;4.40;;;6.20;33.90;;;;;;5092746;28;20198;-52
2021/03/07 00:08:02;;;;;;;6.95;4.97;;;6.10;34.00;;;;;;5090630;28;20676;-52
2021/03/07 00:10:29;;;;;;;4.60;4.20;;;6.00;33.90;;;;;;5091175;28;20266;-52
2021/03/07 00:12:56;;;;;;;4.40;4.00;;;5.90;34.10;;;;;;5091963;28;21217;-52
2021/03/07 00:15:23;;;;;;;6.47;4.70;;;5.90;34.20;;;;;;5091400;28;21145;-51
2021/03/07 00:17:50;;;;;;;5.40;4.40;;;5.80;34.20;;;;;;5091801;28;20265;-52
2021/03/07 00:20:18;;;;;;;4.78;4.28;;;5.80;34.30;;;;;;5091443;28;20222;-52
2021/03/07 00:22:46;;;;;;;4.32;3.92;;;5.80;34.20;;;;;;5091107;28;20548;-52
2021/03/07 00:25:13;;;;;;;4.78;4.30;;;5.80;34.40;;;;;;5090817;28;20265;-52
2021/03/07 00:27:40;;;;;;;5.13;4.63;;;5.70;34.30;;;;;;5089868;28;20540;-51
2021/03/07 00:30:09;;;;;;;5.65;4.40;;;5.70;34.30;;;;;;5090806;28;20744;-52
2021/03/07 00:32:35;;;;;;;7.05;4.88;;;5.60;34.30;;;;;;5090914;28;20214;-52
2021/03/07 00:35:02;;;;;;;5.55;4.53;;;5.60;34.50;;;;;;5092220;28;20264;-52
2021/03/07 00:37:29;;;;;;;5.00;4.50;;;5.60;34.60;;;;;;5091915;28;20255;-53
2021/03/07 00:39:57;;;;;;;5.18;4.65;;;5.60;34.70;;;;;;5091274;28;20205;-52
2021/03/07 00:42:24;;;;;;;4.72;4.32;;;5.60;34.80;;;;;;5090428;28;20250;-52
2021/03/07 00:44:51;;;;;;;7.45;6.45;;;5.60;34.80;;;;;;5090513;28;20226;-52
2021/03/07 00:47:17;;;;;;;6.35;4.78;;;5.60;34.80;;;;;;5091150;28;20241;-52
2021/03/07 00:49:44;;;;;;;4.70;4.30;;;5.60;34.90;;;;;;5090369;28;20202;-52
2021/03/07 00:52:11;;;;;;;5.32;4.20;;;5.60;34.90;;;;;;5090611;28;20223;-56
2021/03/07 00:54:37;;;;;;;5.63;4.35;;;5.60;34.90;;;;;;5090829;28;20222;-52
2021/03/07 00:57:05;;;;;;;4.47;4.10;;;5.50;34.90;;;;;;5090315;28;20193;-52
2021/03/07 00:59:32;;;;;;;5.05;4.60;;;5.50;35.00;;;;;;5090859;28;20577;-52
2021/03/07 01:01:59;;;;;;;5.82;4.15;;;5.50;35.00;;;;;;5090147;28;20783;-52
2021/03/07 01:04:26;;;;;;;4.63;4.18;;;5.50;35.10;;;;;;5089696;28;20691;-52
2021/03/07 01:06:52;;;;;;;3.55;3.25;;;5.50;35.40;;;;;;5089996;28;20732;-52
2021/03/07 01:09:19;;;;;;;5.53;4.60;;;5.50;36.10;;;;;;5089571;28;20286;-52
2021/03/07 01:11:46;;;;;;;5.80;3.92;;;5.60;36.70;;;;;;5090557;28;20251;-52
2021/03/07 01:14:13;;;;;;;3.65;3.35;;;5.60;36.50;;;;;;5090742;28;20311;-53
2021/03/07 01:16:43;;;;;;;4.20;3.80;;;5.60;36.10;;;;;;5089557;28;20195;-52
2021/03/07 01:19:09;;;;;;;4.55;4.10;;;5.50;35.40;;;;;;5090326;28;20202;-51
2021/03/07 01:21:36;;;;;;;5.72;3.85;;;5.50;35.40;;;;;;5089747;28;20339;-50
2021/03/07 01:24:03;;;;;;;4.68;4.28;;;5.50;35.40;;;;;;5089481;28;20249;-50
2021/03/07 01:26:30;;;;;;;4.27;3.47;;;5.40;35.40;;;;;;5091053;28;20231;-50
2021/03/07 01:28:57;;;;;;;4.57;3.60;;;5.30;35.30;;;;;;5090305;28;20638;-50
2021/03/07 01:31:24;;;;;;;4.32;3.53;;;5.20;35.50;;;;;;5090154;28;20217;-50
2021/03/07 01:33:51;;;;;;;4.10;3.70;;;5.20;35.60;;;;;;5089201;28;20228;-50
2021/03/07 01:36:18;;;;;;;3.65;3.30;;;5.10;35.70;;;;;;5089175;28;20209;-50
2021/03/07 01:38:45;;;;;;;4.45;2.75;;;5.10;36.00;;;;;;5089881;28;20236;-51
2021/03/07 01:41:11;;;;;;;3.85;2.90;;;5.00;36.00;;;;;;5089026;28;20194;-50
2021/03/07 01:43:38;;;;;;;5.05;3.95;;;5.10;36.10;;;;;;5089465;28;20297;-51
2021/03/07 01:46:05;;;;;;;4.45;3.80;;;5.10;36.10;;;;;;5090334;28;20206;-50
2021/03/07 01:48:32;;;;;;;3.65;2.95;;;5.00;36.00;;;;;;5089600;28;20250;-50
2021/03/07 01:50:59;;;;;;;4.20;3.10;;;5.10;36.20;;;;;;5089755;28;20558;-51
2021/03/07 01:53:26;;;;;;;4.75;4.10;;;5.10;36.20;;;;;;5088796;28;20227;-51
2021/03/07 01:55:53;;;;;;;4.45;3.50;;;5.10;36.10;;;;;;5089030;28;20227;-51
2021/03/07 01:58:20;;;;;;;3.70;3.17;;;5.10;36.00;;;;;;5088779;28;20704;-51
2021/03/07 02:00:47;;;;;;;6.18;4.10;;;5.20;35.80;;;;;;5088938;28;20251;-51
2021/03/07 02:03:14;;;;;;;6.10;3.90;;;5.20;35.80;;;;;;5089262;28;20313;-51
2021/03/07 02:05:42;;;;;;;5.97;3.83;;;5.10;35.70;;;;;;5088863;28;20198;-51
2021/03/07 02:08:09;;;;;;;6.25;3.50;;;5.10;35.70;;;;;;5088857;28;20289;-51
2021/03/07 02:10:37;;;;;;;6.18;3.75;;;5.10;35.70;;;;;;5088567;28;20210;-53
2021/03/07 02:13:07;;;;;;;3.78;3.38;;;5.10;35.70;;;;;;5088184;28;20229;-53
2021/03/07 02:15:34;;;;;;;3.93;3.50;;;5.20;35.70;;;;;;5088486;28;20677;-53
2021/03/07 02:18:01;;;;;;;3.60;2.85;;;5.20;35.70;;;;;;5088718;28;20708;-53
2021/03/07 02:20:28;;;;;;;3.85;3.45;;;5.30;35.70;;;;;;5087427;28;20259;-52
2021/03/07 02:22:59;;;;;;;4.70;3.50;;;5.30;35.50;;;;;;5091517;28;20205;-52
2021/03/07 02:25:28;;;;;;;3.13;2.90;;;5.40;35.20;;;;;;5092819;28;20614;-51
2021/03/07 02:27:55;;;;;;;3.40;3.10;;;5.40;35.10;;;;;;5092715;28;21232;-53
2021/03/07 02:30:23;;;;;;;3.15;2.85;;;5.40;35.00;;;;;;5092422;28;20225;-51
2021/03/07 02:32:54;;;;;;;3.73;2.90;;;5.30;34.90;;;;;;5092562;28;20257;-51
2021/03/07 02:35:23;;;;;;;5.65;3.85;;;5.30;34.80;;;;;;5091574;28;20629;-51
2021/03/07 02:37:53;;;;;;;4.70;3.97;;;5.30;35.00;;;;;;5092446;28;20256;-51
2021/03/07 02:40:20;;;;;;;4.60;3.20;;;5.20;34.80;;;;;;5091178;28;20200;-51
2021/03/07 02:42:48;;;;;;;3.72;3.15;;;5.20;34.80;;;;;;5091648;28;20239;-52
2021/03/07 02:45:17;;;;;;;6.90;3.55;;;5.30;34.90;;;;;;5091672;28;20243;-51
2021/03/07 02:47:45;;;;;;;3.05;2.75;;;5.30;34.90;;;;;;5091391;28;20221;-51
2021/03/07 02:50:13;;;;;;;4.97;3.60;;;5.30;35.00;;;;;;5092250;28;20256;-51
2021/03/07 02:52:52;;;;;;;4.60;4.18;;;5.30;35.00;;;;;;5091899;28;20319;-51
2021/03/07 02:55:19;;;;;;;5.07;3.50;;;5.30;34.90;;;;;;5092168;28;20206;-52
2021/03/07 02:57:46;;;;;;;3.58;3.03;;;5.30;34.90;;;;;;5091356;28;20304;-53
2021/03/07 03:00:15;;;;;;;4.90;3.30;;;5.30;35.00;;;;;;5091762;28;20233;-53
2021/03/07 03:02:42;;;;;;;3.65;3.35;;;5.30;35.10;;;;;;5091532;28;20209;-53
2021/03/07 03:05:10;;;;;;;5.57;3.83;;;5.30;35.10;;;;;;5074338;28;20210;-52
2021/03/07 03:07:37;;;;;;;4.13;3.78;;;5.30;35.50;;;;;;5071248;28;20237;-52
2021/03/07 03:10:05;;;;;;;3.60;3.20;;;5.30;36.20;;;;;;5071633;28;20202;-52
2021/03/07 03:12:33;;;;;;;5.85;3.83;;;5.30;36.00;;;;;;5089588;28;20485;-53
2021/03/07 03:15:00;;;;;;;5.03;4.13;;;5.30;36.00;;;;;;5091732;28;20218;-51
2021/03/07 03:17:27;;;;;;;3.30;3.00;;;5.30;36.10;;;;;;5089389;28;20616;-53
2021/03/07 03:19:54;;;;;;;3.70;3.40;;;5.20;36.20;;;;;;5092038;28;20205;-52
2021/03/07 03:22:21;;;;;;;5.10;3.63;;;5.30;36.30;;;;;;5092186;28;20209;-51
2021/03/07 03:24:48;;;;;;;5.35;4.20;;;5.30;36.00;;;;;;5091613;28;20303;-52
2021/03/07 03:27:15;;;;;;;4.18;3.78;;;5.30;35.90;;;;;;5091490;28;20511;-52
2021/03/07 03:29:41;;;;;;;6.20;4.57;;;5.40;36.00;;;;;;5091343;28;20604;-52
2021/03/07 03:32:09;;;;;;;4.50;4.00;;;5.40;35.90;;;;;;5091246;28;20765;-52
2021/03/07 03:34:37;;;;;;;4.28;3.90;;;5.40;35.90;;;;;;5091310;28;20763;-51
2021/03/07 03:37:04;;;;;;;5.43;4.07;;;5.30;35.90;;;;;;5091382;28;20257;-51
2021/03/07 03:39:31;;;;;;;3.87;3.43;;;5.30;36.00;;;;;;5091386;28;20609;-52
2021/03/07 03:41:59;;;;;;;3.67;3.13;;;5.30;36.20;;;;;;5089688;28;21248;-51
2021/03/07 03:44:29;;;;;;;3.00;2.70;;;5.30;36.20;;;;;;5090020;28;20221;-52
2021/03/07 03:46:56;;;;;;;4.88;4.43;;;5.30;36.40;;;;;;5090556;28;20250;-52
2021/03/07 03:49:25;;;;;;;4.55;4.13;;;5.30;36.40;;;;;;5090819;28;20601;-51
2021/03/07 03:51:55;;;;;;;6.88;4.28;;;5.20;36.60;;;;;;5091413;28;20206;-51
2021/03/07 03:54:22;;;;;;;6.93;5.57;;;5.30;36.90;;;;;;5090640;28;20750;-51
2021/03/07 03:56:49;;;;;;;4.50;4.10;;;5.30;36.80;;;;;;5090452;28;20202;-51
2021/03/07 03:59:16;;;;;;;5.05;4.30;;;5.20;36.80;;;;;;5090473;28;20201;-52
2021/03/07 04:01:44;;;;;;;4.50;4.10;;;5.20;36.90;;;;;;5090340;28;20293;-52
2021/03/07 04:04:11;;;;;;;4.88;3.97;;;5.20;37.10;;;;;;5090579;28;20641;-52
2021/03/07 04:06:38;;;;;;;6.05;4.78;;;5.10;37.20;;;;;;5090496;28;20202;-57
2021/03/07 04:09:06;;;;;;;6.00;5.32;;;5.10;37.50;;;;;;5090334;28;20225;-51
2021/03/07 04:11:33;;;;;;;6.20;5.07;;;5.00;37.60;;;;;;5090132;28;20300;-51
2021/03/07 04:14:00;;;;;;;6.47;5.22;;;5.00;37.70;;;;;;5090371;28;20228;-50
2021/03/07 04:16:26;;;;;;;5.47;5.00;;;5.00;38.00;;;;;;5090302;28;20250;-50
2021/03/07 04:18:53;;;;;;;6.50;4.90;;;4.90;38.30;;;;;;5088022;28;20875;-50
2021/03/07 04:21:20;;;;;;;5.10;4.70;;;4.90;38.30;;;;;;5090605;28;20586;-51
2021/03/07 04:23:48;;;;;;;6.53;5.07;;;4.90;38.40;;;;;;5089957;28;20285;-52
2021/03/07 04:26:15;;;;;;;5.15;4.65;;;4.80;38.40;;;;;;5090145;28;20242;-52
2021/03/07 04:28:42;;;;;;;6.15;5.20;;;4.80;38.50;;;;;;5089762;28;20412;-50
2021/03/07 04:31:09;;;;;;;6.10;5.55;;;4.90;38.50;;;;;;5089983;28;20251;-50
2021/03/07 04:33:36;;;;;;;5.95;5.38;;;4.80;38.50;;;;;;5090043;28;20600;-50
2021/03/07 04:36:04;;;;;;;7.03;5.13;;;4.80;38.50;;;;;;5089404;28;20274;-50
2021/03/07 04:38:31;;;;;;;5.55;4.43;;;4.80;38.60;;;;;;5089530;28;20201;-51
2021/03/07 04:40:58;;;;;;;10.10;6.13;;;4.80;39.00;;;;;;5089315;28;20193;-52
2021/03/07 04:43:25;;;;;;;9.73;6.95;;;4.70;39.00;;;;;;5089188;28;20262;-52
2021/03/07 04:45:52;;;;;;;7.60;6.53;;;4.70;39.30;;;;;;5088736;28;20270;-52
2021/03/07 04:48:19;;;;;;;7.45;6.68;;;4.70;39.50;;;;;;5089663;28;20297;-52
2021/03/07 04:50:46;;;;;;;6.82;5.80;;;4.60;39.70;;;;;;5090022;28;20227;-52
2021/03/07 04:53:12;;;;;;;10.98;6.55;;;4.60;39.80;;;;;;5089615;28;20761;-51
2021/03/07 04:55:39;;;;;;;9.10;6.20;;;4.60;39.90;;;;;;5089889;28;20244;-51
2021/03/07 04:58:06;;;;;;;9.80;7.20;;;4.60;40.00;;;;;;5089492;28;20267;-52
2021/03/07 05:00:33;;;;;;;7.70;6.18;;;4.50;40.20;;;;;;5089735;28;20200;-52
2021/03/07 05:03:00;;;;;;;7.72;7.00;;;4.50;40.50;;;;;;5090059;28;20222;-52
2021/03/07 05:05:27;;;;;;;11.95;6.65;;;4.50;40.50;;;;;;5089435;28;20204;-51
2021/03/07 05:07:55;;;;;;;9.65;8.75;;;4.50;40.60;;;;;;5087313;28;20714;-51
2021/03/07 05:10:21;;;;;;;7.85;6.95;;;4.50;40.70;;;;;;5070539;28;20205;-52
2021/03/07 05:12:48;;;;;;;8.07;6.60;;;4.40;40.60;;;;;;5089239;28;20254;-51
2021/03/07 05:15:15;;;;;;;13.52;7.60;;;4.50;40.40;;;;;;5090014;28;20236;-51
2021/03/07 05:17:43;;;;;;;6.30;5.72;;;4.50;40.20;;;;;;5089043;28;20332;-51
2021/03/07 05:20:11;;;;;;;7.07;6.35;;;4.40;40.30;;;;;;5079995;28;20246;-51
2021/03/07 05:22:38;;;;;;;6.68;5.60;;;4.40;40.60;;;;;;5078672;28;20193;-51
2021/03/07 05:25:06;;;;;;;5.95;5.38;;;4.40;40.80;;;;;;5078325;28;20205;-52
2021/03/07 05:27:33;;;;;;;6.63;5.47;;;4.30;40.70;;;;;;5084787;28;20213;-51
2021/03/07 05:29:59;;;;;;;6.45;5.85;;;4.30;40.60;;;;;;5089754;28;20214;-52
2021/03/07 05:32:26;;;;;;;9.52;5.70;;;4.30;40.80;;;;;;5089976;28;20216;-51
2021/03/07 05:34:54;;;;;;;9.48;6.05;;;4.30;40.50;;;;;;5088690;28;20315;-52
2021/03/07 05:37:20;;;;;;;6.90;5.50;;;4.30;40.10;;;;;;5089026;28;20197;-52
2021/03/07 05:39:47;;;;;;;8.77;6.05;;;4.30;40.10;;;;;;5089303;28;20655;-52
2021/03/07 05:42:14;;;;;;;6.03;5.50;;;4.20;40.20;;;;;;5088416;28;20203;-52
2021/03/07 05:44:41;;;;;;;6.70;5.68;;;4.20;40.60;;;;;;5088643;28;20213;-51
2021/03/07 05:47:07;;;;;;;5.68;5.10;;;4.20;40.70;;;;;;5089469;28;20199;-53
2021/03/07 05:49:34;;;;;;;6.40;5.78;;;4.20;40.80;;;;;;5088261;28;20313;-53
2021/03/07 05:52:02;;;;;;;6.65;5.85;;;4.30;41.10;;;;;;5089326;28;20205;-52
2021/03/07 05:54:29;;;;;;;9.23;6.15;;;4.30;41.30;;;;;;5089133;28;20682;-51
2021/03/07 05:56:55;;;;;;;9.00;6.45;;;4.30;41.20;;;;;;5091125;28;20251;-52
2021/03/07 05:59:22;;;;;;;9.48;6.05;;;4.30;41.30;;;;;;5092859;28;20251;-52
2021/03/07 06:01:49;;;;;;;7.15;6.43;;;4.20;41.40;;;;;;5093632;28;20246;-51
2021/03/07 06:04:16;;;;;;;7.72;6.22;;;4.20;41.30;;;;;;5093230;28;20281;-51
2021/03/07 06:06:42;;;;;;;6.63;6.13;;;4.20;41.10;;;;;;5093663;28;20715;-52
2021/03/07 06:09:17;;;;;;;8.57;6.75;;;4.20;41.30;;;;;;5092545;28;20202;-50
2021/03/07 06:11:44;;;;;;;10.10;5.60;;;4.20;41.60;;;;;;5093099;28;20216;-52
2021/03/07 06:14:21;;;;;;;5.90;5.40;;;4.20;42.00;;;;;;5093213;28;20212;-53
2021/03/07 06:17:06;;;;;;;6.00;5.30;;;4.20;41.60;;;;;;5093062;28;20692;-52
2021/03/07 06:19:58;;;;;;;5.57;5.07;;;4.10;41.60;;;;;;5092244;28;20200;-52
2021/03/07 06:22:27;;;;;;;9.80;7.38;;;4.10;41.70;;;;;;5093415;28;20201;-52
2021/03/07 06:24:54;;;;;;;5.97;5.38;;;4.20;41.70;;;;;;5092396;28;20288;-52
2021/03/07 06:27:21;;;;;;;7.75;6.45;;;4.10;41.70;;;;;;5093124;28;20198;-52
2021/03/07 06:29:55;;;;;;;8.20;5.75;;;4.10;41.80;;;;;;5092731;28;20201;-51
2021/03/07 06:32:21;;;;;;;7.68;6.88;;;4.10;41.80;;;;;;5092910;28;20202;-50
2021/03/07 06:34:49;;;;;;;7.78;5.90;;;4.10;41.80;;;;;;5092781;28;20218;-50
2021/03/07 06:37:15;;;;;;;6.95;6.15;;;4.10;41.80;;;;;;5092939;28;20204;-51
2021/03/07 06:39:42;;;;;;;6.10;5.50;;;4.00;42.00;;;;;;5092782;28;20197;-51
2021/03/07 06:42:10;;;;;;;7.70;6.25;;;4.00;42.10;;;;;;5092210;28;20192;-50
2021/03/07 06:44:37;;;;;;;8.93;7.38;;;4.00;42.10;;;;;;5092783;28;20286;-51
2021/03/07 06:47:09;;;;;;;7.43;6.72;;;4.00;42.20;;;;;;5092052;28;20655;-51
2021/03/07 06:49:35;;;;;;;6.68;5.82;;;4.00;42.30;;;;;;5092313;28;20204;-51
2021/03/07 06:52:12;;;;;;;7.80;6.45;;;4.00;42.40;;;;;;5092834;28;20201;-51
2021/03/07 06:54:39;;;;;;;8.05;6.18;;;3.90;42.60;;;;;;5092131;28;20628;-50
2021/03/07 06:57:07;;;;;;;11.38;7.43;;;3.90;42.90;;;;;;5092627;28;20272;-50
2021/03/07 06:59:35;;;;;;;8.43;6.90;;;4.00;43.10;;;;;;5092010;28;20623;-50
2021/03/07 07:02:03;;;;;;;7.93;6.60;;;4.00;43.10;;;;;;5091988;28;20196;-52
2021/03/07 07:04:40;;;;;;;7.80;7.00;;;4.10;43.20;;;;;;5086705;28;20359;-51
2021/03/07 07:07:07;;;;;;;8.10;5.63;;;4.20;43.10;;;;;;5078486;28;20326;-51
2021/03/07 07:09:34;;;;;;;7.15;6.38;;;4.20;42.90;;;;;;5091804;28;20204;-51
2021/03/07 07:12:01;;;;;;;6.90;6.30;;;4.30;42.70;;;;;;5091737;28;20500;-51
2021/03/07 07:14:32;;;;;;;6.28;5.57;;;4.30;42.40;;;;;;5091810;28;20221;-52
2021/03/07 07:17:00;;;;;;;7.80;7.10;;;4.40;42.30;;;;;;5091829;28;20554;-51
2021/03/07 07:19:26;;;;;;;7.15;6.45;;;4.70;42.20;;;;;;5091432;28;20292;-52
2021/03/07 07:21:53;;;;;;;7.82;6.35;;;5.00;41.90;;;;;;5091367;28;20211;-52
2021/03/07 07:24:20;;;;;;;6.80;5.70;;;5.30;41.50;;;;;;5090813;28;20283;-53
2021/03/07 07:26:47;;;;;;;10.27;7.27;;;5.50;41.00;;;;;;5091136;28;20682;-53
2021/03/07 07:29:13;;;;;;;6.07;5.47;;;5.90;40.60;;;;;;5091447;28;20620;-52
2021/03/07 07:31:44;;;;;;;8.37;7.60;;;6.20;40.30;;;;;;5091257;28;20641;-53
2021/03/07 07:34:14;;;;;;;7.90;6.80;;;6.50;39.70;;;;;;5091117;28;20665;-53
2021/03/07 07:36:45;;;;;;;7.90;7.17;;;6.80;39.20;;;;;;5091616;28;20634;-52
2021/03/07 07:39:12;;;;;;;7.33;6.50;;;7.00;38.60;;;;;;5083095;28;20695;-51
2021/03/07 07:41:40;;;;;;;8.33;5.67;;;7.10;38.40;;;;;;5083005;28;20669;-50
2021/03/07 07:44:09;;;;;;;6.97;6.23;;;7.20;38.30;;;;;;5089278;28;21039;-51
2021/03/07 07:46:53;;;;;;;9.17;7.17;;;7.30;38.30;;;;;;5086652;28;20757;-51
2021/03/07 07:49:36;;;;;;;7.43;6.30;;;7.50;38.60;;;;;;5090560;28;20632;-51
2021/03/07 07:52:36;;;;;;;6.70;5.97;;;7.70;37.70;;;;;;5091266;28;20704;-52
2021/03/07 07:55:21;;;;;;;6.90;6.30;;;7.80;37.40;;;;;;5091336;28;21055;-52
2021/03/07 07:57:51;;;;;;;7.90;5.97;;;7.90;36.90;;;;;;5091253;28;20649;-52
2021/03/07 08:00:20;;;;;;;8.07;7.27;;;7.80;36.80;;;;;;5091311;28;20628;-52
2021/03/07 08:02:50;;;;;;;8.23;5.80;;;7.70;36.80;;;;;;5091264;28;20631;-52
2021/03/07 08:05:43;;;;;;;7.77;6.97;;;7.70;37.10;;;;;;5087914;28;20621;-52
2021/03/07 08:08:14;;;;;;;7.30;6.60;;;7.70;37.20;;;;;;5081153;28;20615;-52
2021/03/07 08:10:44;;;;;;;8.67;6.53;;;7.70;37.20;;;;;;5080007;28;20623;-51
2021/03/07 08:13:11;;;;;;;9.03;7.27;;;7.70;37.10;;;;;;5077165;28;20686;-52
2021/03/07 08:15:42;;;;;;;7.07;6.47;;;7.80;37.10;;;;;;5077865;28;20728;-52
2021/03/07 08:18:09;;;;;;;7.17;6.47;;;7.90;36.90;;;;;;5073393;28;20686;-50
2021/03/07 08:21:01;;;;;;;6.57;5.90;;;8.10;36.70;;;;;;5069677;28;20660;-50
2021/03/07 08:23:28;;;;;;;6.73;6.03;;;8.40;36.40;;;;;;5070619;28;20661;-50
2021/03/07 08:26:01;;;;;;;7.93;7.13;;;8.80;35.30;;;;;;5070044;28;20782;-52
2021/03/07 08:28:41;;;;;;;6.33;5.73;;;9.20;34.90;;;;;;5070703;28;20621;-51
2021/03/07 08:31:24;;;;;;;6.60;5.97;;;9.60;34.40;;;;;;5074073;28;20681;-51
2021/03/07 08:33:51;;;;;;;6.17;5.60;;;9.90;33.90;;;;;;5087674;28;20683;-51
2021/03/07 08:36:19;;;;;;;7.73;5.70;;;10.00;31.90;;;;;;5090547;28;20636;-51
2021/03/07 08:39:17;;;;;;;6.30;5.70;;;10.20;32.40;;;;;;5090452;28;20777;-52
2021/03/07 08:41:57;;;;;;;6.20;5.60;;;10.30;32.10;;;;;;5089994;28;20689;-52
2021/03/07 08:44:24;;;;;;;6.27;5.70;;;10.50;31.40;;;;;;5084149;28;20652;-51
2021/03/07 08:46:51;;;;;;;7.73;6.37;;;10.40;31.10;;;;;;5070206;28;20694;-51
2021/03/07 08:49:18;;;;;;;6.30;5.67;;;10.40;31.00;;;;;;5087504;28;20624;-51
2021/03/07 08:51:47;;;;;;;6.30;5.70;;;10.50;31.50;;;;;;5089839;28;20640;-51
2021/03/07 08:54:14;;;;;;;7.53;6.23;;;10.50;31.40;;;;;;5090007;28;21025;-50
2021/03/07 08:56:41;;;;;;;5.70;5.20;;;10.40;31.50;;;;;;5090299;28;20677;-52
2021/03/07 08:59:09;;;;;;;6.00;5.50;;;10.20;31.70;;;;;;5090030;28;20632;-51
2021/03/07 09:01:36;;;;;;;6.40;5.80;;;10.10;31.70;;;;;;5090347;28;20700;-50
2021/03/07 09:04:03;;;;;;;8.20;5.73;;;10.10;32.00;;;;;;5089926;28;20668;-51
2021/03/07 09:06:30;;;;;;;7.17;6.40;;;10.20;32.10;;;;;;5089444;28;20705;-52
2021/03/07 09:09:05;;;;;;;5.70;5.23;;;10.30;31.80;;;;;;5089809;28;20983;-51
2021/03/07 09:11:32;;;;;;;7.10;6.47;;;10.30;31.40;;;;;;5089382;28;20689;-52
2021/03/07 09:14:00;;;;;;;6.67;6.10;;;10.40;31.30;;;;;;5089456;28;20660;-51
2021/03/07 09:16:36;;;;;;;6.30;5.47;;;10.40;31.10;;;;;;5088831;28;20643;-50
2021/03/07 09:19:17;;;;;;;5.37;4.73;;;10.30;31.10;;;;;;5087991;28;20628;-51
2021/03/07 09:21:44;;;;;;;5.90;5.37;;;10.20;31.10;;;;;;5089634;28;20627;-50
2021/03/07 09:24:12;;;;;;;5.93;5.40;;;10.20;31.20;;;;;;5088957;28;20755;-51
2021/03/07 09:26:39;;;;;;;9.70;6.33;;;10.10;31.20;;;;;;5087245;28;20782;-51
2021/03/07 09:29:06;;;;;;;5.80;5.13;;;10.10;31.40;;;;;;5082798;28;20673;-51
2021/03/07 09:31:33;;;;;;;5.67;5.17;;;10.00;31.00;;;;;;5085069;28;20633;-51
2021/03/07 09:34:01;;;;;;;4.90;4.50;;;10.00;30.80;;;;;;5089355;28;20786;-52
2021/03/07 09:36:28;;;;;;;5.63;5.07;;;10.00;30.50;;;;;;5088981;28;21016;-52
2021/03/07 09:38:56;;;;;;;7.33;4.70;;;10.00;30.00;;;;;;5087113;28;20632;-52
2021/03/07 09:41:31;;;;;;;5.60;5.10;;;10.00;30.10;;;;;;5079794;28;20633;-52
2021/03/07 09:43:58;;;;;;;5.33;4.13;;;10.20;29.80;;;;;;5080151;28;20701;-52
2021/03/07 09:46:25;;;;;;;6.00;5.50;;;10.40;29.60;;;;;;5091776;28;20658;-52
2021/03/07 09:48:54;;;;;;;4.40;4.00;;;10.50;29.10;;;;;;5089286;28;20628;-52
2021/03/07 09:51:21;;;;;;;5.00;4.50;;;10.60;28.70;;;;;;5089817;28;20624;-53
2021/03/07 09:53:47;;;;;;;4.90;4.50;;;10.60;28.50;;;;;;5089627;28;20675;-52
2021/03/07 09:56:22;;;;;;;5.50;5.10;;;10.60;28.80;;;;;;5087533;28;20705;-51
2021/03/07 09:58:50;;;;;;;4.37;4.07;;;10.70;29.00;;;;;;5088255;28;20632;-53
2021/03/07 10:01:17;;;;;;;4.40;4.00;;;10.90;29.00;;;;;;5088608;28;20693;-54
2021/03/07 10:03:43;;;;;;;5.47;4.97;;;10.90;28.50;;;;;;5088871;28;20684;-52
2021/03/07 10:06:12;;;;;;;5.73;4.70;;;10.90;28.10;;;;;;5081307;28;20679;-53
2021/03/07 10:08:39;;;;;;;4.70;4.30;;;10.90;28.10;;;;;;5068470;28;20621;-53
2021/03/07 10:11:20;;;;;;;6.50;4.63;;;10.70;28.10;;;;;;5088537;28;20628;-52
2021/03/07 10:13:58;;;;;;;4.73;4.37;;;10.70;28.30;;;;;;5088474;28;20651;-53
2021/03/07 10:16:26;;;;;;;6.53;4.20;;;10.80;28.50;;;;;;5089102;28;20682;-53
2021/03/07 10:19:03;;;;;;;7.20;6.60;;;10.80;28.20;;;;;;5088745;28;20971;-53
2021/03/07 10:21:31;;;;;;;5.63;5.13;;;10.90;28.00;;;;;;5087547;28;20910;-52
2021/03/07 10:24:04;;;;;;;5.37;4.97;;;11.30;27.70;;;;;;5087556;28;20838;-53
2021/03/07 10:26:31;;;;;;;7.93;7.33;;;11.70;27.10;;;;;;5088860;28;20630;-52
2021/03/07 10:28:59;;;;;;;6.03;5.63;;;12.00;26.90;;;;;;5084865;28;20712;-54
2021/03/07 10:31:26;;;;;;;4.67;4.37;;;12.40;26.90;;;;;;5086584;28;20628;-53
2021/03/07 10:33:53;;;;;;;5.10;4.70;;;12.90;26.60;;;;;;5088464;28;20819;-52
2021/03/07 10:36:20;;;;;;;5.60;5.20;;;13.20;25.60;;;;;;5089019;28;20620;-54
2021/03/07 10:38:48;;;;;;;7.10;5.80;;;13.50;25.40;;;;;;5088221;28;20624;-53
2021/03/07 10:41:19;;;;;;;6.67;6.27;;;13.70;24.90;;;;;;5088946;28;20677;-53
2021/03/07 10:43:47;;;;;;;6.90;4.67;;;13.90;25.00;;;;;;5091178;28;20652;-53
2021/03/07 10:46:24;;;;;;;4.60;4.20;;;14.10;24.50;;;;;;5092775;28;20648;-53
2021/03/07 10:48:52;;;;;;;6.10;5.60;;;14.30;24.70;;;;;;5091841;28;20658;-53
2021/03/07 10:51:19;;;;;;;5.67;5.27;;;14.40;24.80;;;;;;5092226;28;20623;-53
2021/03/07 10:53:46;;;;;;;5.73;4.60;;;14.60;24.60;;;;;;5092031;28;20705;-54
2021/03/07 10:56:13;;;;;;;6.13;5.73;;;14.80;25.30;;;;;;5092469;28;21204;-54
2021/03/07 10:58:40;;;;;;;10.20;9.60;;;14.70;25.10;;;;;;5092676;28;20684;-54
2021/03/07 11:01:07;;;;;;;6.20;5.83;;;14.80;25.30;;;;;;5092804;28;20689;-55
2021/03/07 11:03:34;;;;;;;7.23;6.83;;;15.10;24.30;;;;;;5092123;28;20688;-53
2021/03/07 11:06:01;;;;;;;5.67;4.47;;;15.30;23.50;;;;;;5090852;28;20632;-54
2021/03/07 11:08:28;;;;;;;4.50;4.20;;;15.30;23.30;;;;;;5091629;28;20694;-50
2021/03/07 11:10:54;;;;;;;4.13;3.83;;;15.00;23.00;;;;;;5090711;28;21203;-51
2021/03/07 11:13:21;;;;;;;5.70;4.10;;;14.50;23.10;;;;;;5091371;28;20698;-51
2021/03/07 11:15:48;;;;;;;5.10;4.70;;;14.10;23.20;;;;;;5087724;28;20978;-52
2021/03/07 11:18:15;;;;;;;13.47;12.77;;;13.70;23.60;;;;;;5079381;28;20617;-51
2021/03/07 11:20:42;;;;;;;9.80;9.20;;;13.50;24.40;;;;;;5087255;28;20629;-53
2021/03/07 11:23:11;;;;;;;8.00;7.40;;;13.60;24.70;;;;;;5071341;28;20769;-52
2021/03/07 11:25:37;;;;;;;4.60;4.20;;;14.20;24.90;;;;;;5071806;28;21214;-52
2021/03/07 11:28:05;;;;;;;6.63;6.13;;;14.70;24.60;;;;;;5087133;28;21035;-53
2021/03/07 11:30:32;;;;;;;6.40;6.10;;;14.90;23.90;;;;;;5074534;28;20628;-52
2021/03/07 11:32:59;;;;;;;5.70;5.20;;;15.00;23.30;;;;;;5089299;28;20652;-52
2021/03/07 11:35:26;;;;;;;5.70;5.30;;;15.40;23.20;;;;;;5088713;28;20648;-52
2021/03/07 11:37:54;;;;;;;6.80;6.33;;;15.60;22.90;;;;;;5090652;28;20628;-53
2021/03/07 11:40:20;;;;;;;5.53;5.03;;;15.90;23.30;;;;;;5091155;28;20681;-53
2021/03/07 11:42:47;;;;;;;7.73;7.20;;;16.20;22.80;;;;;;5085804;28;20623;-53
2021/03/07 11:45:14;;;;;;;7.23;6.80;;;16.30;22.50;;;;;;5090116;28;21029;-53
2021/03/07 11:47:41;;;;;;;6.03;5.50;;;16.60;22.40;;;;;;5090790;28;20689;-53
2021/03/07 11:50:09;;;;;;;4.53;4.13;;;17.10;22.20;;;;;;5090992;28;20624;-53
2021/03/07 11:52:36;;;;;;;5.90;5.50;;;17.30;22.10;;;;;;5083892;28;21166;-56
2021/03/07 11:55:04;;;;;;;4.90;4.60;;;17.70;22.00;;;;;;5085491;28;20709;-53
2021/03/07 11:57:31;;;;;;;5.13;4.70;;;18.40;21.30;;;;;;5091046;28;20677;-53
2021/03/07 11:59:57;;;;;;;6.80;6.20;;;18.20;21.20;;;;;;5091270;28;20627;-53
2021/03/07 12:02:24;;;;;;;4.80;4.40;;;17.90;21.60;;;;;;5091038;28;20632;-53
2021/03/07 12:04:51;;;;;;;4.63;4.27;;;18.30;22.00;;;;;;5082182;28;20733;-54
2021/03/07 12:07:18;;;;;;;5.00;4.50;;;18.50;21.40;;;;;;5091521;28;20624;-53
2021/03/07 12:09:46;;;;;;;4.97;4.40;;;17.60;21.60;;;;;;5090967;28;21027;-53
2021/03/07 12:12:14;;;;;;;5.43;4.57;;;17.60;21.60;;;;;;5082278;28;20673;-53
2021/03/07 12:14:41;;;;;;;5.00;4.60;;;18.90;21.60;;;;;;5091625;28;20656;-54
2021/03/07 12:17:08;;;;;;;5.23;4.83;;;20.00;21.60;;;;;;5091921;28;20636;-54
2021/03/07 12:19:35;;;;;;;4.50;4.20;;;21.20;20.80;;;;;;5087581;28;20704;-53
2021/03/07 12:22:02;;;;;;;4.87;4.47;;;22.10;20.30;;;;;;5089003;28;20694;-54
2021/03/07 12:24:29;;;;;;;4.70;4.30;;;22.60;20.00;;;;;;5074446;28;21270;-53
2021/03/07 12:27:04;;;;;;;5.23;3.83;;;22.70;19.70;;;;;;5089993;28;21264;-53
2021/03/07 12:29:32;;;;;;;4.27;3.97;;;21.20;19.20;;;;;;5090178;28;20996;-53
2021/03/07 12:31:59;;;;;;;4.70;4.30;;;19.70;19.10;;;;;;5090104;28;20632;-53
2021/03/07 12:34:26;;;;;;;4.20;3.90;;;18.50;19.60;;;;;;5087758;28;21236;-53
2021/03/07 12:36:53;;;;;;;4.77;4.30;;;17.60;20.00;;;;;;5076344;28;20663;-53
2021/03/07 12:39:20;;;;;;;4.13;3.83;;;17.50;20.70;;;;;;5084383;28;20701;-51
2021/03/07 12:41:47;;;;;;;4.63;4.20;;;17.30;21.00;;;;;;5088731;28;21043;-51
2021/03/07 12:44:13;;;;;;;4.33;4.00;;;17.10;20.90;;;;;;5087167;28;20732;-52
2021/03/07 12:46:41;;;;;;;5.20;4.70;;;17.10;20.90;;;;;;5085591;28;20620;-51
2021/03/07 12:49:08;;;;;;;4.10;3.80;;;17.10;20.70;;;;;;5083611;28;20656;-52
2021/03/07 12:51:35;;;;;;;5.30;4.80;;;17.20;20.80;;;;;;5089034;28;20689;-52
2021/03/07 12:54:02;;;;;;;5.10;4.30;;;17.50;20.70;;;;;;5090720;28;21239;-51
2021/03/07 12:56:30;;;;;;;4.93;4.53;;;17.50;20.50;;;;;;5088996;28;20652;-52
2021/03/07 12:58:57;;;;;;;4.40;4.10;;;17.30;20.40;;;;;;5090171;28;21243;-52